Time;durP1;ratioP1;P1;durP2;ratioP2;P2;SDS_P1;SDS_P2;PMS_P1;PMS_P2;Temp;Humidity;BMP_temperature;BMP_pressure;BME280_temperature;BME280_humidity;BME280_pressure;Samples;Min_cycle;Max_cycle;Signal;HPM_P1;HPM_P2
2023/12/30 00:01:37;;;;;;;9.90;0.70;;;9.80;99.90;;;;;;4995194;28;20214;-86
2023/12/30 00:04:03;;;;;;;1.17;0.80;;;9.90;99.90;;;;;;4996442;28;20199;-88
2023/12/30 00:06:29;;;;;;;1.10;0.80;;;10.00;99.90;;;;;;4995420;28;20187;-87
2023/12/30 00:08:54;;;;;;;1.73;0.90;;;10.00;99.90;;;;;;4980443;28;20449;-88
2023/12/30 00:11:20;;;;;;;0.57;0.50;;;10.00;99.90;;;;;;4980822;28;20211;-89
2023/12/30 00:13:45;;;;;;;0.60;0.40;;;9.90;99.90;;;;;;4987754;28;20210;-86
2023/12/30 00:16:11;;;;;;;0.90;0.80;;;9.90;99.90;;;;;;4988865;28;20194;-86
2023/12/30 00:18:37;;;;;;;11.20;0.80;;;9.80;99.90;;;;;;4976387;28;20252;-85
2023/12/30 00:21:03;;;;;;;0.47;0.40;;;9.80;99.90;;;;;;4988021;28;20214;-85
2023/12/30 00:23:28;;;;;;;3.43;1.00;;;9.70;99.90;;;;;;4988133;28;20504;-88
2023/12/30 00:25:54;;;;;;;0.73;0.73;;;9.60;99.90;;;;;;4988890;28;20204;-87
2023/12/30 00:28:21;;;;;;;1.13;0.80;;;9.50;99.90;;;;;;4988481;28;20195;-88
2023/12/30 00:30:47;;;;;;;0.90;0.70;;;9.50;99.90;;;;;;4991957;28;20290;-85
2023/12/30 00:33:12;;;;;;;3.40;1.10;;;9.50;99.90;;;;;;4987714;28;20259;-86
2023/12/30 00:35:38;;;;;;;6.03;0.83;;;9.40;99.90;;;;;;4986958;28;20214;-86
2023/12/30 00:38:04;;;;;;;1.03;1.03;;;9.50;99.90;;;;;;4984389;28;20251;-86
2023/12/30 00:40:29;;;;;;;0.77;0.47;;;9.50;99.90;;;;;;4965152;28;20207;-85
2023/12/30 00:42:55;;;;;;;1.40;0.70;;;9.60;99.90;;;;;;4972344;28;20211;-88
2023/12/30 00:45:20;;;;;;;1.03;0.90;;;9.80;99.90;;;;;;4975382;28;20188;-86
2023/12/30 00:47:46;;;;;;;1.00;0.77;;;9.70;99.90;;;;;;4982936;28;20203;-87
2023/12/30 00:50:11;;;;;;;0.40;0.30;;;9.70;99.90;;;;;;4987627;28;20218;-86
2023/12/30 00:52:37;;;;;;;0.70;0.70;;;9.60;99.90;;;;;;4988636;28;20205;-86
2023/12/30 00:55:03;;;;;;;0.87;0.87;;;9.60;99.90;;;;;;4992090;28;20234;-87
2023/12/30 00:57:28;;;;;;;0.83;0.80;;;9.60;99.90;;;;;;4994114;28;20179;-86
2023/12/30 00:59:54;;;;;;;0.50;0.50;;;9.70;99.90;;;;;;4978429;28;20288;-86
2023/12/30 01:02:19;;;;;;;3.37;0.90;;;9.70;99.90;;;;;;4981160;28;20199;-87
2023/12/30 01:04:45;;;;;;;2.63;0.40;;;9.70;99.90;;;;;;4975939;28;20175;-87
2023/12/30 01:07:10;;;;;;;0.57;0.50;;;9.70;99.90;;;;;;4973641;28;20179;-87
2023/12/30 01:09:36;;;;;;;1.27;0.80;;;9.70;99.90;;;;;;4987863;28;20241;-87
2023/12/30 01:12:02;;;;;;;1.77;0.80;;;10.40;99.90;;;;;;4969984;28;20191;-88
2023/12/30 01:14:27;;;;;;;0.67;0.67;;;9.60;99.90;;;;;;4969389;28;21145;-88
2023/12/30 01:16:53;;;;;;;2.30;0.60;;;9.60;99.90;;;;;;4971812;28;20601;-87
2023/12/30 01:19:18;;;;;;;1.13;1.03;;;9.60;99.90;;;;;;4978129;28;20179;-88
2023/12/30 01:21:44;;;;;;;0.90;0.60;;;9.60;99.90;;;;;;4989379;28;21148;-87
2023/12/30 01:24:10;;;;;;;3.60;1.37;;;;;;;;;;4968587;28;20273;-88
2023/12/30 01:26:38;;;;;;;1.17;0.98;;;9.40;99.90;;;;;;4972312;28;20209;-88
2023/12/30 01:29:03;;;;;;;0.90;0.70;;;9.30;99.90;;;;;;4988913;28;20188;-86
2023/12/30 01:31:29;;;;;;;0.73;0.60;;;9.10;99.90;;;;;;4970213;28;20221;-87
2023/12/30 01:33:55;;;;;;;1.10;0.83;;;8.90;99.90;;;;;;4972727;28;20194;-87
2023/12/30 01:36:20;;;;;;;2.30;0.70;;;8.80;99.90;;;;;;4990499;28;20438;-88
2023/12/30 01:38:46;;;;;;;0.90;0.47;;;8.80;99.90;;;;;;4974661;28;20192;-88
2023/12/30 01:41:12;;;;;;;0.83;0.77;;;8.70;99.90;;;;;;4977432;28;20211;-88
2023/12/30 01:43:37;;;;;;;1.43;0.80;;;8.70;99.90;;;;;;4988086;28;20229;-86
2023/12/30 01:46:09;;;;;;;0.47;0.47;;;8.70;99.90;;;;;;4988681;28;20175;-87
2023/12/30 01:48:35;;;;;;;4.53;1.25;;;8.70;99.90;;;;;;4973748;28;20171;-87
2023/12/30 01:51:02;;;;;;;1.23;0.70;;;8.70;99.90;;;;;;4992859;28;20222;-87
2023/12/30 01:53:32;;;;;;;1.25;0.70;;;8.60;99.90;;;;;;4979096;28;20198;-87
2023/12/30 01:55:58;;;;;;;2.15;0.70;;;8.50;99.90;;;;;;4985271;28;20191;-87
2023/12/30 01:58:24;;;;;;;1.50;0.98;;;8.50;99.90;;;;;;4980361;28;20241;-87
2023/12/30 02:00:54;;;;;;;3.27;1.10;;;8.30;99.90;;;;;;4992100;28;20218;-88
2023/12/30 02:03:21;;;;;;;5.97;0.90;;;8.40;99.90;;;;;;4989457;28;20242;-88
2023/12/30 02:05:47;;;;;;;1.63;0.80;;;8.40;99.90;;;;;;4978049;28;20233;-87
2023/12/30 02:08:17;;;;;;;1.90;0.80;;;8.20;99.90;;;;;;4992101;28;20294;-87
2023/12/30 02:10:42;;;;;;;0.60;0.47;;;9.40;99.90;;;;;;4979408;28;20531;-88
2023/12/30 02:13:09;;;;;;;2.20;1.77;;;8.40;99.90;;;;;;4984290;28;20207;-88
2023/12/30 02:15:35;;;;;;;1.77;1.20;;;8.40;99.90;;;;;;4995819;28;20195;-87
2023/12/30 02:18:01;;;;;;;1.40;0.98;;;8.50;99.90;;;;;;4995092;28;20251;-88
2023/12/30 02:20:27;;;;;;;0.80;0.60;;;;;;;;;;4982052;28;20240;-88
2023/12/30 02:22:53;;;;;;;1.30;0.80;;;;;;;;;;4998051;28;20462;-86
2023/12/30 02:25:19;;;;;;;1.17;0.47;;;8.50;99.90;;;;;;4998317;28;20437;-86
2023/12/30 02:27:45;;;;;;;0.70;0.60;;;;;;;;;;4997641;28;20460;-86
2023/12/30 02:30:13;;;;;;;1.23;0.80;;;8.50;99.90;;;;;;4987190;28;20207;-86
2023/12/30 02:32:38;;;;;;;4.20;1.10;;;8.40;99.90;;;;;;4983573;28;20274;-87
2023/12/30 02:35:05;;;;;;;1.23;0.40;;;8.40;99.90;;;;;;4993130;28;20179;-85
2023/12/30 02:37:30;;;;;;;0.90;0.90;;;8.30;99.90;;;;;;4999302;28;20187;-87
2023/12/30 02:39:56;;;;;;;0.30;0.20;;;;;;;;;;4986037;28;20203;-86
2023/12/30 02:42:22;;;;;;;0.57;0.50;;;8.20;99.90;;;;;;4994635;28;20238;-86
2023/12/30 02:44:47;;;;;;;0.60;0.40;;;8.10;99.90;;;;;;4982914;28;20430;-86
2023/12/30 02:47:13;;;;;;;1.23;0.70;;;8.10;99.90;;;;;;4993166;28;20191;-87
2023/12/30 02:49:42;;;;;;;0.80;0.50;;;8.00;99.90;;;;;;5002354;28;20210;-86
2023/12/30 02:52:08;;;;;;;0.52;0.47;;;8.10;99.90;;;;;;5017191;28;20195;-86
2023/12/30 02:54:35;;;;;;;1.37;0.63;;;8.10;99.90;;;;;;5003493;28;20226;-86
2023/12/30 02:57:02;;;;;;;1.15;0.80;;;8.10;99.90;;;;;;5003452;28;20187;-85
2023/12/30 02:59:30;;;;;;;1.70;0.50;;;8.10;99.90;;;;;;5001061;28;20704;-86
2023/12/30 03:01:56;;;;;;;1.67;1.20;;;8.20;99.90;;;;;;4991816;28;20203;-86
2023/12/30 03:04:22;;;;;;;0.60;0.60;;;8.10;99.90;;;;;;4996924;28;20190;-87
2023/12/30 03:06:48;;;;;;;0.77;0.60;;;8.10;99.90;;;;;;4989790;28;20609;-86
2023/12/30 03:09:14;;;;;;;1.50;0.97;;;8.10;99.90;;;;;;4986559;28;20226;-86
2023/12/30 03:11:39;;;;;;;2.73;1.00;;;10.90;99.90;;;;;;4984011;28;20266;-85
2023/12/30 03:14:05;;;;;;;1.70;1.40;;;8.10;99.90;;;;;;4998951;28;20519;-86
2023/12/30 03:16:31;;;;;;;0.63;0.60;;;8.20;99.90;;;;;;4984605;28;20258;-87
2023/12/30 03:18:57;;;;;;;5.82;1.02;;;;;;;;;;4986967;28;20207;-85
2023/12/30 03:21:23;;;;;;;2.65;1.08;;;8.10;99.90;;;;;;4987114;28;20275;-87
2023/12/30 03:23:49;;;;;;;1.83;0.90;;;8.10;99.90;;;;;;4981652;28;20183;-87
2023/12/30 03:26:14;;;;;;;1.13;0.80;;;8.10;99.90;;;;;;5030597;28;20341;-86
2023/12/30 03:28:40;;;;;;;1.43;0.60;;;8.10;99.90;;;;;;4997469;28;20191;-86
2023/12/30 03:31:09;;;;;;;3.13;1.20;;;;;;;;;;4999412;28;20191;-87
2023/12/30 03:33:35;;;;;;;2.25;1.10;;;;;;;;;;4994840;28;20506;-86
2023/12/30 03:36:00;;;;;;;1.07;0.70;;;8.10;99.90;;;;;;4980405;28;20515;-87
2023/12/30 03:38:27;;;;;;;5.20;1.23;;;;;;;;;;5000646;28;20984;-85
2023/12/30 03:40:52;;;;;;;0.82;0.80;;;8.10;99.90;;;;;;5001848;28;20210;-84
2023/12/30 03:43:18;;;;;;;1.07;0.57;;;8.10;99.90;;;;;;4985626;28;20215;-86
2023/12/30 03:45:44;;;;;;;1.40;0.80;;;;;;;;;;5003282;28;20172;-87
2023/12/30 03:48:09;;;;;;;1.30;0.73;;;8.10;99.90;;;;;;5000842;28;20179;-87
2023/12/30 03:50:36;;;;;;;2.53;1.43;;;8.10;99.90;;;;;;4985755;28;20480;-86
2023/12/30 03:53:03;;;;;;;1.20;0.60;;;8.10;99.90;;;;;;4996676;28;20180;-87
2023/12/30 03:55:28;;;;;;;0.63;0.63;;;8.20;99.90;;;;;;4995702;28;20203;-86
2023/12/30 03:57:54;;;;;;;1.27;1.10;;;8.20;99.90;;;;;;5068744;28;20194;-87
2023/12/30 04:00:20;;;;;;;1.47;0.80;;;8.20;99.90;;;;;;4982184;28;20207;-87
2023/12/30 04:02:47;;;;;;;1.70;1.13;;;8.10;99.90;;;;;;5002884;28;20195;-87
2023/12/30 04:05:12;;;;;;;2.70;0.93;;;8.10;99.90;;;;;;5027063;28;20421;-87
2023/12/30 04:07:38;;;;;;;0.80;0.80;;;8.00;99.90;;;;;;5011609;28;20171;-87
2023/12/30 04:10:04;;;;;;;3.33;1.03;;;8.20;99.90;;;;;;4987293;28;21050;-87
2023/12/30 04:12:31;;;;;;;1.05;0.80;;;8.20;99.90;;;;;;5008642;28;20162;-86
2023/12/30 04:14:57;;;;;;;1.20;0.80;;;;;;;;;;5015243;28;20200;-86
2023/12/30 04:17:22;;;;;;;0.60;0.50;;;8.30;99.90;;;;;;4983624;28;20470;-86
2023/12/30 04:19:48;;;;;;;1.80;1.20;;;8.30;99.90;;;;;;4987526;28;20232;-88
2023/12/30 04:22:14;;;;;;;1.33;0.70;;;8.20;99.90;;;;;;4988948;28;20207;-86
2023/12/30 04:24:39;;;;;;;1.07;0.60;;;;;;;;;;4999155;28;20186;-86
2023/12/30 04:27:05;;;;;;;1.53;0.77;;;;;;;;;;4983162;28;20187;-85
2023/12/30 04:29:32;;;;;;;4.53;0.80;;;8.30;99.90;;;;;;4984078;28;20465;-86
2023/12/30 04:31:57;;;;;;;0.80;0.68;;;8.30;99.90;;;;;;5000354;28;20465;-86
2023/12/30 04:34:23;;;;;;;2.00;0.80;;;8.20;99.90;;;;;;4984914;28;20203;-87
2023/12/30 04:36:48;;;;;;;2.10;0.40;;;8.30;99.90;;;;;;4997169;28;20195;-86
2023/12/30 04:39:14;;;;;;;0.60;0.47;;;;;;;;;;4987828;28;20179;-86
2023/12/30 04:41:41;;;;;;;2.50;1.03;;;;;;;;;;4986065;28;20217;-86
2023/12/30 04:44:06;;;;;;;2.03;1.10;;;;;;;;;;5003263;28;20445;-86
2023/12/30 04:46:32;;;;;;;0.90;0.40;;;;;;;;;;5002591;28;20175;-86
2023/12/30 04:49:02;;;;;;;1.10;0.40;;;;;;;;;;4987646;28;20475;-86
2023/12/30 04:51:28;;;;;;;0.40;0.40;;;;;;;;;;5002382;28;20457;-86
2023/12/30 04:53:54;;;;;;;1.27;0.80;;;;;;;;;;4998354;28;20188;-85
2023/12/30 04:56:20;;;;;;;0.88;0.60;;;8.40;99.90;;;;;;4987780;28;20437;-87
2023/12/30 04:58:46;;;;;;;0.30;0.30;;;;;;;;;;4983072;28;20215;-85
2023/12/30 05:01:12;;;;;;;0.68;0.50;;;8.50;99.90;;;;;;4984168;28;20224;-85
2023/12/30 05:03:41;;;;;;;0.80;0.80;;;8.50;99.90;;;;;;4990987;28;20203;-86
2023/12/30 05:06:06;;;;;;;1.85;0.95;;;8.50;99.90;;;;;;4998723;28;20430;-86
2023/12/30 05:08:32;;;;;;;0.47;0.43;;;8.50;99.90;;;;;;5000121;28;20179;-86
2023/12/30 05:10:58;;;;;;;0.50;0.43;;;;;;;;;;5000959;28;20195;-85
2023/12/30 05:13:23;;;;;;;1.25;0.43;;;8.40;99.90;;;;;;4997021;28;20190;-85
2023/12/30 05:15:49;;;;;;;2.80;0.90;;;;;;;;;;4983923;28;20183;-84
2023/12/30 05:18:15;;;;;;;0.60;0.50;;;8.50;99.90;;;;;;4997941;28;20187;-85
2023/12/30 05:20:41;;;;;;;0.68;0.50;;;8.50;99.90;;;;;;5000670;28;20454;-84
2023/12/30 05:23:07;;;;;;;9.17;0.97;;;8.50;99.90;;;;;;4994307;28;20218;-86
2023/12/30 05:25:33;;;;;;;0.63;0.50;;;;;;;;;;5005368;28;20513;-87
2023/12/30 05:27:59;;;;;;;1.40;0.35;;;8.30;99.90;;;;;;5003675;28;20233;-85
2023/12/30 05:30:24;;;;;;;0.30;0.30;;;8.20;99.90;;;;;;4999740;28;20680;-87
2023/12/30 05:32:50;;;;;;;1.33;0.97;;;8.20;99.90;;;;;;4980134;28;21149;-86
2023/12/30 05:35:16;;;;;;;0.40;0.30;;;;;;;;;;4993870;28;20243;-85
2023/12/30 05:37:42;;;;;;;1.10;0.55;;;8.30;99.90;;;;;;4988386;28;20224;-85
2023/12/30 05:40:09;;;;;;;2.80;1.10;;;8.30;99.90;;;;;;5005340;28;20234;-84
2023/12/30 05:42:34;;;;;;;0.77;0.52;;;8.30;99.90;;;;;;4988318;28;20233;-85
2023/12/30 05:45:00;;;;;;;0.93;0.40;;;8.40;99.90;;;;;;5010815;28;20830;-84
2023/12/30 05:47:26;;;;;;;0.80;0.50;;;;;;;;;;4994953;28;20206;-86
2023/12/30 05:49:52;;;;;;;1.57;0.83;;;;;;;;;;4986599;28;21537;-85
2023/12/30 05:52:18;;;;;;;1.00;0.37;;;8.40;99.90;;;;;;4986368;28;20434;-86
2023/12/30 05:54:46;;;;;;;0.60;0.40;;;8.40;99.90;;;;;;4998600;28;20445;-86
2023/12/30 05:57:12;;;;;;;0.40;0.40;;;10.00;99.90;;;;;;4983458;28;20607;-86
2023/12/30 05:59:39;;;;;;;1.43;0.73;;;;;;;;;;4983692;28;20211;-85
2023/12/30 06:02:05;;;;;;;0.95;0.50;;;;;;;;;;4979402;28;20291;-86
2023/12/30 06:04:31;;;;;;;0.75;0.60;;;;;;;;;;4994531;28;20187;-84
2023/12/30 06:06:57;;;;;;;0.50;0.40;;;;;;;;;;4985581;28;20191;-85
2023/12/30 06:09:23;;;;;;;0.40;0.30;;;;;;;;;;4982364;28;20497;-85
2023/12/30 06:11:49;;;;;;;0.63;0.63;;;;;;;;;;4997442;28;20442;-84
2023/12/30 06:14:15;;;;;;;0.65;0.50;;;8.10;99.90;;;;;;4979200;28;20453;-85
2023/12/30 06:16:41;;;;;;;3.55;0.60;;;8.50;99.90;;;;;;4998688;28;20179;-85
2023/12/30 06:19:06;;;;;;;0.50;0.40;;;8.30;99.90;;;;;;4989956;28;20197;-85
2023/12/30 06:21:32;;;;;;;5.33;0.90;;;8.40;99.90;;;;;;4993915;28;20225;-85
2023/12/30 06:23:57;;;;;;;2.50;0.60;;;8.40;99.90;;;;;;4998101;28;20212;-86
2023/12/30 06:26:23;;;;;;;0.40;0.40;;;8.40;99.90;;;;;;4986675;28;20186;-86
2023/12/30 06:28:49;;;;;;;0.90;0.70;;;;;;;;;;4986737;28;20183;-87
2023/12/30 06:31:15;;;;;;;1.60;0.50;;;8.40;99.90;;;;;;4978717;28;20543;-86
2023/12/30 06:33:40;;;;;;;0.57;0.40;;;8.40;99.90;;;;;;4994689;28;20177;-86
2023/12/30 06:36:07;;;;;;;0.33;0.27;;;8.30;99.90;;;;;;4995814;28;20264;-85
2023/12/30 06:38:32;;;;;;;0.65;0.50;;;8.30;99.90;;;;;;5000184;28;20175;-86
2023/12/30 06:40:58;;;;;;;0.93;0.50;;;8.40;99.90;;;;;;4985875;28;20213;-85
2023/12/30 06:43:24;;;;;;;0.40;0.30;;;;;;;;;;4999010;28;20231;-85
2023/12/30 06:45:49;;;;;;;1.90;0.67;;;8.50;99.90;;;;;;4997990;28;20183;-85
2023/12/30 06:48:18;;;;;;;4.93;0.40;;;8.40;99.90;;;;;;4992768;28;20512;-85
2023/12/30 06:50:45;;;;;;;0.80;0.60;;;8.20;99.90;;;;;;4982506;28;20199;-85
2023/12/30 06:53:11;;;;;;;0.40;0.40;;;8.30;99.90;;;;;;4992694;28;20918;-86
2023/12/30 06:55:37;;;;;;;1.07;0.50;;;;;;;;;;4981383;28;20203;-85
2023/12/30 06:58:03;;;;;;;0.88;0.45;;;8.30;99.90;;;;;;4982395;28;20175;-84
2023/12/30 07:00:30;;;;;;;0.40;0.30;;;;;;;;;;4998598;28;20203;-84
2023/12/30 07:02:56;;;;;;;0.40;0.35;;;8.30;99.90;;;;;;5001466;28;20577;-85
2023/12/30 07:05:21;;;;;;;0.30;0.20;;;8.50;99.90;;;;;;4998669;28;20500;-85
2023/12/30 07:07:47;;;;;;;0.77;0.43;;;8.40;99.90;;;;;;4999826;28;20260;-85
2023/12/30 07:10:12;;;;;;;0.30;0.30;;;8.40;99.90;;;;;;4996200;28;20214;-85
2023/12/30 07:12:38;;;;;;;0.60;0.60;;;8.40;99.90;;;;;;5001737;28;20175;-84
2023/12/30 07:15:04;;;;;;;1.07;0.37;;;8.40;99.90;;;;;;4991099;28;20279;-85
2023/12/30 07:17:30;;;;;;;0.95;0.80;;;;;;;;;;5005159;28;20190;-85
2023/12/30 07:19:56;;;;;;;0.52;0.52;;;8.40;99.90;;;;;;5000783;28;20678;-85
2023/12/30 07:22:22;;;;;;;2.05;0.65;;;7.90;99.90;;;;;;5000998;28;20298;-85
2023/12/30 07:24:48;;;;;;;5.80;2.20;;;;;;;;;;4988387;28;20175;-85
2023/12/30 07:27:14;;;;;;;2.30;0.60;;;8.40;99.90;;;;;;4992302;28;20249;-84
2023/12/30 07:29:40;;;;;;;0.50;0.40;;;;;;;;;;4978818;28;20454;-85
2023/12/30 07:32:06;;;;;;;0.40;0.30;;;8.50;99.90;;;;;;4991239;28;20180;-81
2023/12/30 07:34:32;;;;;;;0.57;0.40;;;8.50;99.90;;;;;;4993185;28;20194;-84
2023/12/30 07:37:01;;;;;;;1.10;0.60;;;8.40;99.90;;;;;;4993171;28;20187;-83
2023/12/30 07:39:27;;;;;;;0.40;0.40;;;8.50;99.90;;;;;;4991742;28;20222;-83
2023/12/30 07:41:53;;;;;;;0.40;0.40;;;8.60;99.90;;;;;;4993465;28;20518;-85
2023/12/30 07:44:18;;;;;;;0.73;0.57;;;8.60;99.90;;;;;;4990237;28;20228;-84
2023/12/30 07:46:44;;;;;;;0.57;0.57;;;8.60;99.90;;;;;;4992386;28;22237;-85
2023/12/30 07:49:10;;;;;;;0.40;0.30;;;8.50;99.90;;;;;;4993274;28;20320;-82
2023/12/30 07:51:36;;;;;;;1.48;0.52;;;8.40;99.90;;;;;;4974833;28;20235;-85
2023/12/30 07:54:01;;;;;;;0.60;0.50;;;8.40;99.90;;;;;;4992650;28;20195;-84
2023/12/30 07:56:27;;;;;;;1.43;0.57;;;8.40;99.90;;;;;;4973205;28;20183;-83
2023/12/30 07:58:52;;;;;;;0.40;0.30;;;8.50;99.90;;;;;;4979049;28;20657;-83
2023/12/30 08:01:18;;;;;;;1.00;0.73;;;8.50;99.90;;;;;;4978961;28;20206;-85
2023/12/30 08:03:43;;;;;;;1.63;0.43;;;8.50;99.90;;;;;;4977406;28;20183;-84
2023/12/30 08:06:09;;;;;;;0.60;0.30;;;8.50;99.90;;;;;;4977963;28;20179;-85
2023/12/30 08:08:34;;;;;;;0.47;0.37;;;8.40;99.90;;;;;;4994997;28;20267;-83
2023/12/30 08:11:00;;;;;;;0.40;0.33;;;8.40;99.90;;;;;;4997605;28;20608;-84
2023/12/30 08:13:26;;;;;;;1.60;0.77;;;8.40;99.90;;;;;;4996268;28;20190;-84
2023/12/30 08:15:51;;;;;;;0.50;0.30;;;8.40;99.90;;;;;;4992042;28;20605;-85
2023/12/30 08:18:17;;;;;;;0.40;0.30;;;8.50;99.90;;;;;;4981521;28;20219;-85
2023/12/30 08:20:42;;;;;;;1.07;0.77;;;8.60;99.90;;;;;;4984975;28;21831;-84
2023/12/30 08:23:07;;;;;;;0.40;0.30;;;8.60;99.90;;;;;;4980342;28;20285;-84
2023/12/30 08:25:33;;;;;;;0.87;0.73;;;8.70;99.90;;;;;;4981078;28;20198;-84
2023/12/30 08:27:58;;;;;;;0.63;0.50;;;8.80;99.90;;;;;;4998425;28;20156;-83
2023/12/30 08:30:24;;;;;;;3.80;0.40;;;8.90;99.90;;;;;;4984814;28;20179;-84
2023/12/30 08:32:50;;;;;;;0.40;0.30;;;8.90;99.90;;;;;;4997034;28;20642;-83
2023/12/30 08:35:15;;;;;;;2.20;0.60;;;8.90;99.90;;;;;;4983615;28;20741;-81
2023/12/30 08:37:41;;;;;;;0.40;0.40;;;9.00;99.90;;;;;;4991588;28;20933;-83
2023/12/30 08:40:10;;;;;;;0.70;0.53;;;9.00;99.90;;;;;;4974448;28;20673;-83
2023/12/30 08:42:36;;;;;;;2.05;0.52;;;9.00;99.90;;;;;;4976982;28;20603;-82
2023/12/30 08:45:04;;;;;;;0.40;0.32;;;8.90;99.90;;;;;;4976234;28;20179;-83
2023/12/30 08:47:32;;;;;;;0.43;0.43;;;8.90;99.90;;;;;;4981755;28;20159;-83
2023/12/30 08:49:57;;;;;;;1.02;0.65;;;9.00;99.90;;;;;;4992708;28;20195;-83
2023/12/30 08:52:23;;;;;;;0.70;0.50;;;9.10;99.90;;;;;;4998744;28;20191;-83
2023/12/30 08:54:48;;;;;;;0.70;0.50;;;9.20;99.90;;;;;;4992954;28;20179;-81
2023/12/30 08:57:14;;;;;;;0.87;0.40;;;9.30;99.90;;;;;;4990193;28;20183;-82
2023/12/30 08:59:40;;;;;;;1.43;0.50;;;9.30;99.90;;;;;;4983811;28;20557;-82
2023/12/30 09:02:05;;;;;;;2.37;0.50;;;9.40;99.90;;;;;;4992811;28;20191;-83
2023/12/30 09:04:31;;;;;;;0.40;0.30;;;9.50;99.90;;;;;;4986175;28;20228;-81
2023/12/30 09:06:56;;;;;;;0.53;0.40;;;9.50;99.90;;;;;;4996369;28;20442;-82
2023/12/30 09:09:22;;;;;;;1.23;0.53;;;9.60;99.90;;;;;;4978605;28;20190;-83
2023/12/30 09:11:47;;;;;;;0.93;0.50;;;9.60;99.90;;;;;;4995451;28;20179;-83
2023/12/30 09:14:13;;;;;;;0.93;0.40;;;9.70;99.90;;;;;;4993120;28;20543;-82
2023/12/30 09:16:39;;;;;;;0.87;0.40;;;9.80;99.90;;;;;;4974174;28;20312;-81
2023/12/30 09:19:04;;;;;;;0.40;0.40;;;9.90;99.90;;;;;;4996076;28;20171;-83
2023/12/30 09:21:30;;;;;;;1.57;0.70;;;10.20;99.90;;;;;;5003572;28;20268;-83
2023/12/30 09:23:56;;;;;;;1.57;0.70;;;10.30;99.90;;;;;;5012511;28;20469;-82
2023/12/30 09:26:22;;;;;;;1.85;0.60;;;10.80;99.90;;;;;;4998564;28;20175;-82
2023/12/30 09:28:47;;;;;;;0.90;0.60;;;11.20;99.90;;;;;;4982630;28;20289;-81
2023/12/30 09:31:13;;;;;;;1.10;0.47;;;11.10;99.90;;;;;;4997191;28;20261;-83
2023/12/30 09:33:38;;;;;;;0.50;0.43;;;11.00;99.90;;;;;;4966214;28;20237;-85
2023/12/30 09:36:05;;;;;;;0.40;0.40;;;11.10;99.90;;;;;;4983515;28;20184;-84
2023/12/30 09:38:31;;;;;;;1.58;0.70;;;11.10;99.90;;;;;;4970251;28;20480;-82
2023/12/30 09:40:56;;;;;;;0.80;0.50;;;11.10;99.90;;;;;;4983571;28;20286;-84
2023/12/30 09:43:28;;;;;;;0.50;0.50;;;11.10;99.90;;;;;;4980571;28;20218;-83
2023/12/30 09:45:55;;;;;;;4.13;0.80;;;10.90;99.90;;;;;;4992498;28;20186;-84
2023/12/30 09:48:26;;;;;;;0.50;0.30;;;11.10;99.90;;;;;;4973493;28;20622;-84
2023/12/30 09:50:56;;;;;;;1.08;0.55;;;11.90;99.90;;;;;;4988292;28;20191;-84
2023/12/30 09:53:23;;;;;;;1.25;1.00;;;10.90;99.90;;;;;;4994590;28;20187;-84
2023/12/30 09:55:52;;;;;;;9.88;2.50;;;11.00;99.90;;;;;;4981768;28;20179;-85
2023/12/30 09:58:19;;;;;;;3.10;1.05;;;11.20;99.90;;;;;;4976568;28;20850;-83
2023/12/30 10:00:45;;;;;;;2.05;1.25;;;11.30;99.90;;;;;;4998172;28;20202;-85
2023/12/30 10:03:11;;;;;;;2.97;1.07;;;11.20;99.90;;;;;;4976780;28;20214;-84
2023/12/30 10:05:36;;;;;;;5.80;1.20;;;11.30;99.90;;;;;;5068166;28;20228;-84
2023/12/30 10:08:06;;;;;;;7.20;2.63;;;11.20;99.90;;;;;;4980218;28;20178;-84
2023/12/30 10:10:50;;;;;;;0.50;0.40;;;11.50;99.90;;;;;;5010992;28;20264;-84
2023/12/30 10:13:21;;;;;;;0.63;0.55;;;11.70;99.90;;;;;;4996529;28;20207;-84
2023/12/30 10:15:47;;;;;;;0.60;0.40;;;11.60;99.90;;;;;;4977759;28;20191;-85
2023/12/30 10:18:15;;;;;;;0.80;0.47;;;11.40;99.90;;;;;;4999385;28;20194;-83
2023/12/30 10:20:42;;;;;;;7.70;1.50;;;11.40;99.90;;;;;;4997708;28;20195;-83
2023/12/30 10:23:08;;;;;;;1.15;0.60;;;11.30;99.90;;;;;;4982866;28;20199;-84
2023/12/30 10:25:35;;;;;;;0.63;0.63;;;11.10;99.90;;;;;;4983399;28;20274;-83
2023/12/30 10:28:01;;;;;;;0.50;0.32;;;11.10;99.90;;;;;;4983007;28;20438;-84
2023/12/30 10:30:30;;;;;;;1.05;0.60;;;11.00;99.90;;;;;;5001206;28;20717;-83
2023/12/30 10:33:09;;;;;;;5.28;1.33;;;11.20;99.90;;;;;;5005496;28;20183;-83
2023/12/30 10:35:35;;;;;;;0.88;0.60;;;11.20;99.90;;;;;;5003827;28;20199;-83
2023/12/30 10:38:03;;;;;;;0.40;0.30;;;10.90;99.90;;;;;;4985528;28;20653;-84
2023/12/30 10:40:29;;;;;;;3.00;0.50;;;11.10;99.90;;;;;;4981380;28;20577;-85
2023/12/30 10:42:55;;;;;;;0.65;0.65;;;11.40;99.90;;;;;;4982073;28;20301;-84
2023/12/30 10:45:21;;;;;;;0.50;0.30;;;11.40;99.90;;;;;;5000388;28;20206;-85
2023/12/30 10:47:49;;;;;;;1.10;0.70;;;11.00;99.90;;;;;;4984378;28;20175;-83
2023/12/30 10:50:15;;;;;;;0.85;0.65;;;10.70;99.90;;;;;;4982173;28;20450;-84
2023/12/30 10:52:49;;;;;;;2.93;0.47;;;10.40;99.90;;;;;;4983016;28;20649;-83
2023/12/30 10:55:16;;;;;;;3.35;0.50;;;10.50;99.90;;;;;;4982082;28;20591;-83
2023/12/30 10:57:51;;;;;;;1.10;0.70;;;10.70;99.90;;;;;;4983182;28;20172;-84
2023/12/30 11:00:20;;;;;;;1.65;1.00;;;10.70;99.90;;;;;;4983820;28;20202;-85
2023/12/30 11:02:47;;;;;;;0.63;0.60;;;10.90;99.90;;;;;;4986816;28;20206;-87
2023/12/30 11:05:22;;;;;;;1.23;0.70;;;11.10;99.90;;;;;;4981591;28;20180;-85
2023/12/30 11:07:48;;;;;;;0.80;0.30;;;10.90;99.90;;;;;;5024095;28;20199;-85
2023/12/30 11:10:19;;;;;;;5.72;0.60;;;10.70;99.90;;;;;;4996300;28;20191;-84
2023/12/30 11:12:45;;;;;;;5.28;0.82;;;10.70;99.90;;;;;;5000259;28;20179;-86
2023/12/30 11:15:29;;;;;;;1.85;0.40;;;10.60;99.90;;;;;;5000455;28;20209;-85
2023/12/30 11:17:58;;;;;;;2.15;0.40;;;10.70;99.90;;;;;;4984893;28;20315;-85
2023/12/30 11:20:30;;;;;;;0.75;0.50;;;11.00;99.90;;;;;;5000501;28;20198;-85
2023/12/30 11:23:03;;;;;;;1.20;0.45;;;11.40;99.90;;;;;;4981440;28;20199;-84
2023/12/30 11:25:47;;;;;;;0.50;0.40;;;11.40;99.90;;;;;;4993471;28;20189;-84
2023/12/30 11:28:18;;;;;;;1.05;0.40;;;11.50;99.90;;;;;;5000469;28;20170;-85
2023/12/30 11:30:45;;;;;;;0.30;0.30;;;11.30;99.90;;;;;;4999392;28;20746;-84
2023/12/30 11:33:12;;;;;;;1.77;0.57;;;11.10;99.90;;;;;;4979851;28;20194;-84
2023/12/30 11:35:38;;;;;;;0.50;0.50;;;11.00;99.90;;;;;;4999276;28;20920;-85
2023/12/30 11:38:09;;;;;;;1.73;0.70;;;11.20;99.90;;;;;;4981165;28;20256;-83
2023/12/30 11:40:41;;;;;;;0.45;0.30;;;11.40;99.90;;;;;;4999476;28;20434;-83
2023/12/30 11:43:10;;;;;;;0.40;0.40;;;11.30;99.90;;;;;;4980876;28;20211;-84
2023/12/30 11:45:36;;;;;;;2.17;0.57;;;11.10;99.90;;;;;;4982399;28;20175;-84
2023/12/30 11:48:02;;;;;;;0.50;0.50;;;11.00;99.90;;;;;;5001481;28;20713;-84
2023/12/30 11:50:28;;;;;;;0.50;0.30;;;11.20;99.90;;;;;;4980818;28;20194;-82
2023/12/30 11:52:56;;;;;;;2.00;0.77;;;11.40;99.90;;;;;;4972713;28;20187;-87
2023/12/30 11:55:24;;;;;;;0.80;0.80;;;11.70;99.90;;;;;;4997864;28;20175;-87
2023/12/30 11:57:51;;;;;;;0.95;0.52;;;11.90;99.90;;;;;;4977190;28;20175;-88
2023/12/30 12:00:17;;;;;;;0.40;0.30;;;12.10;99.90;;;;;;4983537;28;20198;-87
2023/12/30 12:02:44;;;;;;;0.77;0.50;;;12.10;99.90;;;;;;4981838;28;20207;-86
2023/12/30 12:05:09;;;;;;;0.80;0.40;;;12.00;99.90;;;;;;5000992;28;20425;-85
2023/12/30 12:07:35;;;;;;;0.50;0.30;;;12.30;99.90;;;;;;4999281;28;20402;-87
2023/12/30 12:10:00;;;;;;;0.43;0.27;;;12.20;99.90;;;;;;4980831;28;20571;-85
2023/12/30 12:12:36;;;;;;;0.40;0.30;;;11.60;99.90;;;;;;4997515;28;20238;-85
2023/12/30 12:15:03;;;;;;;0.75;0.40;;;11.50;99.90;;;;;;4981060;28;20178;-85
2023/12/30 12:17:29;;;;;;;0.75;0.70;;;11.30;99.90;;;;;;4984270;28;20206;-84
2023/12/30 12:19:56;;;;;;;0.40;0.40;;;11.20;99.90;;;;;;4974557;28;20694;-84
2023/12/30 12:22:21;;;;;;;0.90;0.63;;;11.10;99.90;;;;;;4990788;28;20473;-84
2023/12/30 12:24:47;;;;;;;0.77;0.40;;;11.50;99.90;;;;;;4987596;28;21154;-84
2023/12/30 12:27:23;;;;;;;7.20;1.53;;;11.30;99.90;;;;;;4994457;28;20175;-84
2023/12/30 12:29:54;;;;;;;1.75;0.75;;;11.20;99.90;;;;;;4979694;28;20203;-84
2023/12/30 12:32:21;;;;;;;0.60;0.40;;;11.10;99.90;;;;;;4982448;28;20750;-84
2023/12/30 12:34:47;;;;;;;0.90;0.60;;;11.10;99.90;;;;;;4980444;28;20190;-83
2023/12/30 12:37:14;;;;;;;0.50;0.30;;;11.10;99.90;;;;;;4985621;28;20562;-85
2023/12/30 12:39:48;;;;;;;4.32;0.93;;;11.10;99.90;;;;;;5052936;28;20574;-85
2023/12/30 12:42:15;;;;;;;0.40;0.30;;;11.10;99.90;;;;;;5048742;28;20262;-83
2023/12/30 12:44:41;;;;;;;0.47;0.32;;;11.20;99.90;;;;;;5046906;28;20209;-86
2023/12/30 12:47:08;;;;;;;0.55;0.30;;;11.20;99.90;;;;;;5050363;28;20188;-85
2023/12/30 12:49:36;;;;;;;1.05;0.60;;;11.20;99.90;;;;;;5047890;28;20223;-86
2023/12/30 12:52:02;;;;;;;0.60;0.40;;;11.10;99.90;;;;;;5045025;28;20795;-85
2023/12/30 12:54:29;;;;;;;1.03;0.60;;;11.20;99.90;;;;;;5048430;28;20205;-86
2023/12/30 12:56:56;;;;;;;0.47;0.30;;;11.40;99.90;;;;;;5048591;28;20530;-85
2023/12/30 12:59:21;;;;;;;1.05;0.30;;;11.10;99.90;;;;;;5049436;28;20239;-86
2023/12/30 13:01:47;;;;;;;0.50;0.47;;;11.10;99.90;;;;;;5046142;28;20418;-86